Time;durP1;ratioP1;P1;durP2;ratioP2;P2;SDS_P1;SDS_P2;PMS_P1;PMS_P2;Temp;Humidity;BMP_temperature;BMP_pressure;BME280_temperature;BME280_humidity;BME280_pressure;Samples;Min_cycle;Max_cycle;Signal;HPM_P1;HPM_P2
2022/09/07 00:01:41;;;;;;;4.55;2.10;;;;;;;;;;5031056;28;20040;-63
2022/09/07 00:04:08;;;;;;;4.50;1.70;;;;;;;;;;5033435;28;20021;-62
2022/09/07 00:06:34;;;;;;;7.43;2.53;;;;;;;;;;5033764;28;20041;-62
2022/09/07 00:09:01;;;;;;;3.88;1.92;;;;;;;;;;5031470;28;20048;-62
2022/09/07 00:11:27;;;;;;;3.80;1.70;;;;;;;;;;5022668;28;20071;-62
2022/09/07 00:13:53;;;;;;;5.30;1.77;;;;;;;;;;5023996;28;20025;-67
2022/09/07 00:16:25;;;;;;;5.32;1.58;;;;;;;;;;5021908;28;20025;-64
2022/09/07 00:18:55;;;;;;;7.20;1.90;;;;;;;;;;5021985;28;20025;-63
2022/09/07 00:21:22;;;;;;;4.78;2.00;;;;;;;;;;5022348;28;20475;-66
2022/09/07 00:23:49;;;;;;;7.80;1.80;;;;;;;;;;5022383;28;20033;-66
2022/09/07 00:26:26;;;;;;;4.50;2.00;;;;;;;;;;5023788;28;20069;-62
2022/09/07 00:28:56;;;;;;;5.90;1.73;;;;;;;;;;5021771;28;20026;-62
2022/09/07 00:31:22;;;;;;;4.17;1.90;;;;;;;;;;5022881;28;20158;-61
2022/09/07 00:33:50;;;;;;;3.60;1.60;;;;;;;;;;5023101;28;20048;-62
2022/09/07 00:36:17;;;;;;;2.72;1.50;;;;;;;;;;5021654;28;20026;-62
2022/09/07 00:38:42;;;;;;;7.35;2.03;;;;;;;;;;5022957;28;20593;-62
2022/09/07 00:41:08;;;;;;;2.67;1.83;;;;;;;;;;5031684;28;20127;-62
2022/09/07 00:43:45;;;;;;;3.95;1.60;;;;;;;;;;5032953;28;20045;-62
2022/09/07 00:46:15;;;;;;;5.68;2.00;;;;;;;;;;5032566;28;20045;-62
2022/09/07 00:48:46;;;;;;;2.55;1.48;;;;;;;;;;5033000;28;20166;-62
2022/09/07 00:51:16;;;;;;;3.38;1.90;;;;;;;;;;5032686;28;20026;-62
2022/09/07 00:53:43;;;;;;;;;;;;;;;;;;5033255;28;20527;-62
2022/09/07 00:56:10;;;;;;;4.32;1.83;;;;;;;;;;5032890;28;20011;-62
2022/09/07 00:58:39;;;;;;;5.38;1.80;;;;;;;;;;5032822;28;20033;-62
2022/09/07 01:01:05;;;;;;;4.05;1.95;;;;;;;;;;5032437;28;20033;-62
2022/09/07 01:03:38;;;;;;;4.65;1.90;;;;;;;;;;5032636;28;20021;-62
2022/09/07 01:06:19;;;;;;;6.10;1.80;;;;;;;;;;5032631;28;20478;-62
2022/09/07 01:08:48;;;;;;;4.43;1.60;;;;;;;;;;5032619;28;20025;-62
2022/09/07 01:11:14;;;;;;;3.75;1.83;;;;;;;;;;5032627;28;20029;-62
2022/09/07 01:13:41;;;;;;;5.07;1.60;;;;;;;;;;5035202;28;20022;-62
2022/09/07 01:16:21;;;;;;;5.03;2.00;;;;;;;;;;5036393;28;20359;-63
2022/09/07 01:19:20;;;;;;;3.53;1.80;;;;;;;;;;5036610;28;20475;-62
2022/09/07 01:22:19;;;;;;;4.88;1.85;;;;;;;;;;5036577;28;20026;-62
2022/09/07 01:25:11;;;;;;;7.15;2.00;;;;;;;;;;5036397;28;20140;-63
2022/09/07 01:28:04;;;;;;;7.38;2.08;;;;;;;;;;5016645;28;20042;-63
2022/09/07 01:30:36;;;;;;;6.93;1.92;;;;;;;;;;5016290;28;20105;-64
2022/09/07 01:33:26;;;;;;;4.35;2.03;;;;;;;;;;5016576;28;20425;-63
2022/09/07 01:36:13;;;;;;;5.13;1.90;;;;;;;;;;5016602;28;20378;-62
2022/09/07 01:38:47;;;;;;;3.88;1.98;;;;;;;;;;5016440;28;20479;-63
2022/09/07 01:41:35;;;;;;;4.72;1.77;;;;;;;;;;5016308;28;20137;-62
2022/09/07 01:44:25;;;;;;;4.45;1.80;;;;;;;;;;5016115;28;20104;-65
2022/09/07 01:47:09;;;;;;;8.75;2.03;;;;;;;;;;5016358;28;20372;-62
2022/09/07 01:49:39;;;;;;;4.13;1.83;;;;;;;;;;5016361;28;20026;-62
2022/09/07 01:52:08;;;;;;;;;;;;;;;;;;5016529;28;20113;-62
2022/09/07 01:54:40;;;;;;;5.57;1.95;;;;;;;;;;5016215;28;19921;-62
2022/09/07 01:57:20;;;;;;;5.30;2.03;;;;;;;;;;5016452;28;20036;-62
2022/09/07 02:00:12;;;;;;;4.32;2.17;;;;;;;;;;5015815;28;20164;-62
2022/09/07 02:03:13;;;;;;;6.38;1.75;;;;;;;;;;5015065;28;20410;-62
2022/09/07 02:05:45;;;;;;;5.38;2.10;;;;;;;;;;5014763;28;20103;-62
2022/09/07 02:08:23;;;;;;;4.72;1.95;;;;;;;;;;5015965;28;20022;-63
2022/09/07 02:10:54;;;;;;;3.00;2.00;;;;;;;;;;5015978;28;20091;-62
2022/09/07 02:13:34;;;;;;;4.00;2.00;;;;;;;;;;5015721;28;20468;-63
2022/09/07 02:16:25;;;;;;;;;;;;;;;;;;5016175;28;20335;-63
2022/09/07 02:19:00;;;;;;;6.28;2.22;;;;;;;;;;5015447;28;20432;-65
2022/09/07 02:21:39;;;;;;;6.40;2.00;;;;;;;;;;5015595;28;20052;-62
2022/09/07 02:24:10;;;;;;;5.90;1.98;;;;;;;;;;5014505;28;20475;-62
2022/09/07 02:26:39;;;;;;;6.53;2.28;;;;;;;;;;5026947;28;20050;-63
2022/09/07 02:29:06;;;;;;;4.78;2.40;;;;;;;;;;5035310;28;20068;-63
2022/09/07 02:31:31;;;;;;;4.70;2.00;;;;;;;;;;5035208;28;20108;-63
2022/09/07 02:33:59;;;;;;;4.25;1.92;;;;;;;;;;5035330;28;20117;-62
2022/09/07 02:36:30;;;;;;;4.45;2.17;;;;;;;;;;5035103;28;20029;-63
2022/09/07 02:38:55;;;;;;;3.00;1.92;;;;;;;;;;5035226;28;20491;-63
2022/09/07 02:41:36;;;;;;;4.10;2.00;;;;;;;;;;5034629;28;20045;-62
2022/09/07 02:44:06;;;;;;;8.10;1.63;;;;;;;;;;5034994;28;20033;-62
2022/09/07 02:47:09;;;;;;;4.03;1.70;;;;;;;;;;5034971;28;20026;-64
2022/09/07 02:49:58;;;;;;;6.05;1.80;;;;;;;;;;5034966;28;20025;-63
2022/09/07 02:53:05;;;;;;;4.40;1.90;;;;;;;;;;5034982;28;20382;-63
2022/09/07 02:55:45;;;;;;;4.97;1.83;;;;;;;;;;5034754;28;20040;-62
2022/09/07 02:58:33;;;;;;;6.65;1.90;;;;;;;;;;5034701;28;20034;-63
2022/09/07 03:01:50;;;;;;;8.60;3.78;;;;;;;;;;5034750;28;20029;-62
2022/09/07 03:04:50;;;;;;;3.95;2.08;;;;;;;;;;5012686;28;20109;-62
2022/09/07 03:07:21;;;;;;;5.35;1.88;;;;;;;;;;5012413;28;20068;-62
2022/09/07 03:09:52;;;;;;;4.70;2.10;;;;;;;;;;5012583;28;20050;-62
2022/09/07 03:12:18;;;;;;;6.55;1.85;;;;;;;;;;5012463;28;20387;-63
2022/09/07 03:14:43;;;;;;;4.28;2.30;;;;;;;;;;5012465;28;20171;-62
2022/09/07 03:17:10;;;;;;;3.95;1.70;;;;;;;;;;5012631;28;20062;-65
2022/09/07 03:19:35;;;;;;;3.60;1.67;;;;;;;;;;5012424;28;20435;-62
2022/09/07 03:22:01;;;;;;;7.10;2.35;;;;;;;;;;5012290;28;20145;-62
2022/09/07 03:24:27;;;;;;;3.50;1.73;;;;;;;;;;5012093;28;20030;-62
2022/09/07 03:26:52;;;;;;;4.15;1.95;;;;;;;;;;5012053;28;20042;-64
2022/09/07 03:29:18;;;;;;;5.78;2.33;;;;;;;;;;5012234;28;20038;-63
2022/09/07 03:31:44;;;;;;;7.05;2.00;;;;;;;;;;5012164;28;20442;-63
2022/09/07 03:34:10;;;;;;;6.63;1.77;;;;;;;;;;5012486;28;20042;-62
2022/09/07 03:36:36;;;;;;;5.82;2.00;;;;;;;;;;5013894;28;20030;-63
2022/09/07 03:39:02;;;;;;;8.50;2.00;;;;;;;;;;5013956;28;20109;-62
2022/09/07 03:41:28;;;;;;;5.68;1.65;;;;;;;;;;5014042;28;20112;-67
2022/09/07 03:43:54;;;;;;;4.93;2.30;;;;;;;;;;5014201;28;20109;-63
2022/09/07 03:46:19;;;;;;;6.03;1.95;;;;;;;;;;5013966;28;20030;-62
2022/09/07 03:48:46;;;;;;;6.10;2.03;;;;;;;;;;5014022;28;20033;-62
2022/09/07 03:51:14;;;;;;;4.93;2.30;;;;;;;;;;5013971;28;20101;-62
2022/09/07 03:53:43;;;;;;;5.22;2.20;;;;;;;;;;5013612;28;20040;-63
2022/09/07 03:56:18;;;;;;;3.58;2.05;;;;;;;;;;5013854;28;20029;-68
2022/09/07 03:58:44;;;;;;;4.90;2.00;;;;;;;;;;5013857;28;20022;-63
2022/09/07 04:01:14;;;;;;;6.80;2.10;;;;;;;;;;5013868;28;20405;-67
2022/09/07 04:03:41;;;;;;;4.72;2.00;;;;;;;;;;5013878;28;20109;-67
2022/09/07 04:06:06;;;;;;;5.07;1.88;;;;;;;;;;5013791;28;20037;-62
2022/09/07 04:08:34;;;;;;;3.28;1.90;;;;;;;;;;5013496;28;20022;-62
2022/09/07 04:11:01;;;;;;;3.45;1.80;;;;;;;;;;5013502;28;20108;-66
2022/09/07 04:13:28;;;;;;;5.57;2.08;;;;;;;;;;5013435;28;20048;-63
2022/09/07 04:15:54;;;;;;;5.28;1.85;;;;;;;;;;5013523;28;20022;-64
2022/09/07 04:18:20;;;;;;;5.43;2.17;;;;;;;;;;5013433;28;20033;-64
2022/09/07 04:20:46;;;;;;;4.90;2.03;;;;;;;;;;5013439;28;20037;-63
2022/09/07 04:23:12;;;;;;;5.22;2.25;;;;;;;;;;5013499;28;20375;-64
2022/09/07 04:25:45;;;;;;;6.55;2.00;;;;;;;;;;5016823;28;20046;-65
2022/09/07 04:28:10;;;;;;;6.68;2.00;;;;;;;;;;5033023;28;20025;-63
2022/09/07 04:30:36;;;;;;;5.25;2.17;;;;;;;;;;5033013;28;20032;-64
2022/09/07 04:33:01;;;;;;;5.32;2.30;;;;;;;;;;5032935;28;20026;-64
2022/09/07 04:35:27;;;;;;;4.80;1.92;;;;;;;;;;5032992;28;20033;-63
2022/09/07 04:37:52;;;;;;;5.20;2.15;;;;;;;;;;5032906;28;20348;-63
2022/09/07 04:40:18;;;;;;;3.80;1.58;;;;;;;;;;5032838;28;20108;-63
2022/09/07 04:42:43;;;;;;;3.67;1.75;;;;;;;;;;5032983;28;20033;-64
2022/09/07 04:45:09;;;;;;;10.43;2.35;;;;;;;;;;5032860;28;20029;-65
2022/09/07 04:47:35;;;;;;;5.97;2.45;;;;;;;;;;5032250;28;20025;-63
2022/09/07 04:50:00;;;;;;;5.25;2.10;;;;;;;;;;5032821;28;20064;-63
2022/09/07 04:52:25;;;;;;;7.15;2.50;;;;;;;;;;5032453;28;20033;-63
2022/09/07 04:54:51;;;;;;;3.55;2.08;;;;;;;;;;5032760;28;20032;-67
2022/09/07 04:57:20;;;;;;;8.35;2.63;;;;;;;;;;5032773;28;20028;-63
2022/09/07 04:59:47;;;;;;;3.42;2.00;;;;;;;;;;5032650;28;20037;-63
2022/09/07 05:02:12;;;;;;;4.93;2.40;;;;;;;;;;5031627;28;20026;-63
2022/09/07 05:04:38;;;;;;;6.10;2.45;;;;;;;;;;5032838;28;20083;-64
2022/09/07 05:07:03;;;;;;;6.45;2.33;;;;;;;;;;5032323;28;20025;-66
2022/09/07 05:09:29;;;;;;;12.63;2.05;;;;;;;;;;5032742;28;20471;-68
2022/09/07 05:11:54;;;;;;;5.65;1.90;;;;;;;;;;5032569;28;20112;-63
2022/09/07 05:14:20;;;;;;;5.22;2.13;;;;;;;;;;5032468;28;20482;-63
2022/09/07 05:16:45;;;;;;;5.80;2.08;;;;;;;;;;5032598;28;20057;-63
2022/09/07 05:19:12;;;;;;;5.82;2.53;;;;;;;;;;5032585;28;20025;-63
2022/09/07 05:21:37;;;;;;;4.53;2.13;;;;;;;;;;5032105;28;20021;-65
2022/09/07 05:24:03;;;;;;;9.75;2.40;;;;;;;;;;5032338;28;20024;-63
2022/09/07 05:26:32;;;;;;;10.65;2.28;;;;;;;;;;5031665;28;20052;-63
2022/09/07 05:29:02;;;;;;;6.55;2.40;;;;;;;;;;5032201;28;20044;-63
2022/09/07 05:31:29;;;;;;;9.05;2.63;;;;;;;;;;5032416;28;20022;-63
2022/09/07 05:33:58;;;;;;;10.40;3.78;;;;;;;;;;5032319;28;20030;-64
2022/09/07 05:36:25;;;;;;;4.67;1.90;;;;;;;;;;5032063;28;20026;-64
2022/09/07 05:38:52;;;;;;;9.77;2.72;;;;;;;;;;5032105;28;20058;-63
2022/09/07 05:41:23;;;;;;;9.70;2.75;;;;;;;;;;5032380;28;20026;-63
2022/09/07 05:43:49;;;;;;;9.90;2.58;;;;;;;;;;5032300;28;20352;-67
2022/09/07 05:46:16;;;;;;;6.00;2.33;;;;;;;;;;5032178;28;20032;-63
2022/09/07 05:48:42;;;;;;;12.43;2.35;;;;;;;;;;5032259;28;20021;-62
2022/09/07 05:51:08;;;;;;;8.45;2.80;;;;;;;;;;5031967;28;20079;-63
2022/09/07 05:53:38;;;;;;;7.47;1.98;;;;;;;;;;5032128;28;20441;-63
2022/09/07 05:56:05;;;;;;;6.90;2.33;;;;;;;;;;5032410;28;20025;-63
2022/09/07 05:58:31;;;;;;;6.57;2.10;;;;;;;;;;5032847;28;20374;-63
2022/09/07 06:01:16;;;;;;;8.65;2.63;;;;;;;;;;5035839;28;20045;-63
2022/09/07 06:03:43;;;;;;;7.22;2.75;;;;;;;;;;5035536;28;20457;-63
2022/09/07 06:06:10;;;;;;;7.60;2.22;;;;;;;;;;5035347;28;20040;-63
2022/09/07 06:08:38;;;;;;;3.60;2.08;;;;;;;;;;5035727;28;20083;-64
2022/09/07 06:11:11;;;;;;;11.75;2.80;;;;;;;;;;5035643;28;20032;-63
2022/09/07 06:13:37;;;;;;;6.15;2.28;;;;;;;;;;5035632;28;20087;-63
2022/09/07 06:16:05;;;;;;;4.95;2.20;;;;;;;;;;5035551;28;20025;-63
2022/09/07 06:18:33;;;;;;;6.68;2.40;;;;;;;;;;5035253;28;20459;-63
2022/09/07 06:21:03;;;;;;;14.00;2.92;;;;;;;;;;5035495;28;20471;-63
2022/09/07 06:23:30;;;;;;;14.68;3.30;;;;;;;;;;5035333;28;20125;-63
2022/09/07 06:25:56;;;;;;;15.05;3.40;;;;;;;;;;5034845;28;20041;-63
2022/09/07 06:28:30;;;;;;;7.40;2.58;;;;;;;;;;5035302;28;20100;-63
2022/09/07 06:31:04;;;;;;;10.63;2.92;;;;;;;;;;5035419;28;20053;-64
2022/09/07 06:33:30;;;;;;;7.93;2.78;;;;;;;;;;5034693;28;20025;-63
2022/09/07 06:36:01;;;;;;;14.40;2.90;;;;;;;;;;5035447;28;20037;-63
2022/09/07 06:38:36;;;;;;;6.90;2.63;;;;;;;;;;5034864;28;20116;-63
2022/09/07 06:41:12;;;;;;;8.40;2.55;;;;;;;;;;5035267;28;20113;-63
2022/09/07 06:43:39;;;;;;;12.32;3.20;;;;;;;;;;5035198;28;20027;-63
2022/09/07 06:46:05;;;;;;;11.63;2.83;;;;;;;;;;5034998;28;20025;-63
2022/09/07 06:48:31;;;;;;;8.82;2.92;;;;;;;;;;5034667;28;20033;-63
2022/09/07 06:51:06;;;;;;;12.90;2.75;;;;;;;;;;5034892;28;20026;-63
2022/09/07 06:53:36;;;;;;;8.02;2.80;;;;;;;;;;5034819;28;20041;-63
2022/09/07 06:56:07;;;;;;;14.80;3.08;;;;;;;;;;5034968;28;20494;-63
2022/09/07 06:58:33;;;;;;;9.52;2.58;;;;;;;;;;5034511;28;20046;-64
2022/09/07 07:01:04;;;;;;;9.18;2.70;;;;;;;;;;5034602;28;20037;-63
2022/09/07 07:03:29;;;;;;;6.63;2.63;;;;;;;;;;5034462;28;20026;-63
2022/09/07 07:05:56;;;;;;;14.60;3.25;;;;;;;;;;5026164;28;20034;-62
2022/09/07 07:08:23;;;;;;;12.25;2.92;;;;;;;;;;5034010;28;20399;-63
2022/09/07 07:10:50;;;;;;;10.90;2.67;;;;;;;;;;5037887;28;20152;-62
2022/09/07 07:13:17;;;;;;;12.32;3.00;;;;;;;;;;5030367;28;20045;-62
2022/09/07 07:15:43;;;;;;;7.60;2.47;;;;;;;;;;5031685;28;20017;-63
2022/09/07 07:18:09;;;;;;;8.27;2.60;;;;;;;;;;5032061;28;20033;-62
2022/09/07 07:20:36;;;;;;;11.40;3.00;;;;;;;;;;5031306;28;20025;-62
2022/09/07 07:23:02;;;;;;;9.95;2.80;;;;;;;;;;5023853;28;20040;-63
2022/09/07 07:25:27;;;;;;;13.32;2.95;;;;;;;;;;5029821;28;20064;-63
2022/09/07 07:27:53;;;;;;;10.25;2.88;;;;;;;;;;5029993;28;20045;-63
2022/09/07 07:30:19;;;;;;;14.13;3.13;;;;;;;;;;5030418;28;20040;-63
2022/09/07 07:32:45;;;;;;;9.88;3.00;;;;;;;;;;5030273;28;20026;-64
2022/09/07 07:35:12;;;;;;;8.88;2.55;;;;;;;;;;5030872;28;20041;-67
2022/09/07 07:37:38;;;;;;;12.52;3.10;;;;;;;;;;5030311;28;20367;-63
2022/09/07 07:40:05;;;;;;;7.88;2.55;;;;;;;;;;5030687;28;20040;-63
2022/09/07 07:42:32;;;;;;;10.35;3.10;;;;;;;;;;5027106;28;20103;-63
2022/09/07 07:44:58;;;;;;;7.28;2.70;;;;;;;;;;5029768;28;20437;-63
2022/09/07 07:47:24;;;;;;;6.97;3.35;;;;;;;;;;5030832;28;20938;-62
2022/09/07 07:49:49;;;;;;;13.63;2.97;;;;;;;;;;5029503;28;20088;-64
2022/09/07 07:52:15;;;;;;;14.63;3.17;;;;;;;;;;5029552;28;20022;-64
2022/09/07 07:54:44;;;;;;;16.33;3.40;;;;;;;;;;5029830;28;20407;-63
2022/09/07 07:57:09;;;;;;;12.88;3.83;;;;;;;;;;5029085;28;20028;-63
2022/09/07 07:59:35;;;;;;;11.02;3.20;;;;;;;;;;5030343;28;20359;-63
2022/09/07 08:02:03;;;;;;;9.18;3.10;;;;;;;;;;5029307;28;20658;-65
2022/09/07 08:04:30;;;;;;;14.10;3.95;;;;;;;;;;5029666;28;20088;-63
2022/09/07 08:06:55;;;;;;;17.15;3.88;;;;;;;;;;5029423;28;20029;-64
2022/09/07 08:09:21;;;;;;;9.82;3.22;;;;;;;;;;5029845;28;20483;-62
2022/09/07 08:11:47;;;;;;;8.02;3.20;;;;;;;;;;5029488;28;20053;-64
2022/09/07 08:14:12;;;;;;;13.75;3.60;;;;;;;;;;5029719;28;20075;-63
2022/09/07 08:16:37;;;;;;;10.63;2.88;;;;;;;;;;5029524;28;20064;-63
2022/09/07 08:19:04;;;;;;;11.52;3.33;;;;;;;;;;5029802;28;20029;-63
2022/09/07 08:21:30;;;;;;;10.65;3.45;;;;;;;;;;5028569;28;20110;-62
2022/09/07 08:23:55;;;;;;;10.77;3.63;;;;;;;;;;5028154;28;20539;-63
2022/09/07 08:26:21;;;;;;;11.63;3.17;;;;;;;;;;5028896;28;20191;-62
2022/09/07 08:28:47;;;;;;;12.77;3.40;;;;;;;;;;5029428;28;20053;-62
2022/09/07 08:31:14;;;;;;;7.35;3.10;;;;;;;;;;5027902;28;20028;-64
2022/09/07 08:33:41;;;;;;;7.97;2.85;;;;;;;;;;5028538;28;20025;-64
2022/09/07 08:36:12;;;;;;;14.68;3.38;;;;;;;;;;5028484;28;20097;-63
2022/09/07 08:38:38;;;;;;;10.38;2.95;;;;;;;;;;5029447;28;20030;-63
2022/09/07 08:41:40;;;;;;;9.77;3.08;;;;;;;;;;5028365;28;20391;-62
2022/09/07 08:44:20;;;;;;;10.07;3.00;;;;;;;;;;5028642;28;20091;-63
2022/09/07 08:46:48;;;;;;;;;;;;;;;;;;5029972;28;20033;-62
2022/09/07 08:49:36;;;;;;;10.60;2.88;;;;;;;;;;5028936;28;19932;-62
2022/09/07 08:52:07;;;;;;;10.32;3.20;;;;;;;;;;5029008;28;20033;-62
2022/09/07 08:54:33;;;;;;;13.18;3.60;;;;;;;;;;5029020;28;20497;-64
2022/09/07 08:57:01;;;;;;;8.82;3.15;;;;;;;;;;5028193;28;20041;-62
2022/09/07 08:59:41;;;;;;;10.35;3.03;;;;;;;;;;5029105;28;20116;-63
2022/09/07 09:02:13;;;;;;;;;;;;;;;;;;5027499;28;20486;-63
2022/09/07 09:04:39;;;;;;;8.32;3.03;;;;;;;;;;5028456;28;19961;-63
2022/09/07 09:07:31;;;;;;;9.10;2.60;;;;;;;;;;5028853;28;20026;-63
2022/09/07 09:10:21;;;;;;;8.10;3.17;;;;;;;;;;5028474;28;20021;-63
2022/09/07 09:13:08;;;;;;;12.85;3.05;;;;;;;;;;5028185;28;20462;-63
2022/09/07 09:15:36;;;;;;;8.88;2.28;;;;;;;;;;5028764;28;20104;-62
2022/09/07 09:18:14;;;;;;;10.75;3.10;;;;;;;;;;5027680;28;20049;-63
2022/09/07 09:20:57;;;;;;;10.95;3.58;;;;;;;;;;5028955;28;20029;-63
2022/09/07 09:23:25;;;;;;;9.70;3.00;;;;;;;;;;5029007;28;20132;-63
2022/09/07 09:25:56;;;;;;;7.50;2.80;;;;;;;;;;5027782;28;20034;-63
2022/09/07 09:28:22;;;;;;;12.50;3.63;;;;;;;;;;5027691;28;20061;-63
2022/09/07 09:30:49;;;;;;;11.77;2.80;;;;;;;;;;5028085;28;20037;-64
2022/09/07 09:33:20;;;;;;;11.80;2.75;;;;;;;;;;5028592;28;20044;-63
2022/09/07 09:35:48;;;;;;;9.13;2.40;;;;;;;;;;5032374;28;20035;-63
2022/09/07 09:38:38;;;;;;;10.52;2.97;;;;;;;;;;5031954;28;20125;-62
2022/09/07 09:41:14;;;;;;;5.35;2.15;;;;;;;;;;5031885;28;20033;-62
2022/09/07 09:43:43;;;;;;;7.80;2.33;;;;;;;;;;5031292;28;20026;-63
2022/09/07 09:46:35;;;;;;;8.20;2.17;;;;;;;;;;5032786;28;20026;-62
2022/09/07 09:49:11;;;;;;;5.82;2.13;;;;;;;;;;5030304;28;21099;-63
2022/09/07 09:51:43;;;;;;;5.47;2.30;;;;;;;;;;5029135;28;20375;-62
2022/09/07 09:54:29;;;;;;;8.13;2.88;;;;;;;;;;5031795;28;20032;-63
2022/09/07 09:56:55;;;;;;;7.07;2.47;;;;;;;;;;5032035;28;20030;-63
2022/09/07 09:59:26;;;;;;;11.95;2.60;;;;;;;;;;5032435;28;20024;-63
2022/09/07 10:01:52;;;;;;;11.93;2.42;;;;;;;;;;5031882;28;20030;-63
2022/09/07 10:04:29;;;;;;;10.73;2.35;;;;;;;;;;5031508;28;20038;-63
2022/09/07 10:07:20;;;;;;;7.78;3.00;;;;;;;;;;5030685;28;20033;-63
2022/09/07 10:09:51;;;;;;;8.40;2.60;;;;;;;;;;5031204;28;20377;-64
2022/09/07 10:12:31;;;;;;;5.60;2.75;;;;;;;;;;5032415;28;20052;-64
2022/09/07 10:14:58;;;;;;;;;;;;;;;;;;5031540;28;20056;-63
2022/09/07 10:17:23;;;;;;;7.75;3.20;;;;;;;;;;5031839;28;19913;-64
2022/09/07 10:19:49;;;;;;;8.68;3.05;;;;;;;;;;5031341;28;20041;-63
2022/09/07 10:22:32;;;;;;;6.38;2.38;;;;;;;;;;5032330;28;20063;-63
2022/09/07 10:24:59;;;;;;;9.15;2.60;;;;;;;;;;5030546;28;20025;-63
2022/09/07 10:27:34;;;;;;;5.90;2.20;;;;;;;;;;5030215;28;20478;-63
2022/09/07 10:30:01;;;;;;;6.65;2.05;;;;;;;;;;5031370;28;20482;-63
2022/09/07 10:32:32;;;;;;;9.02;2.70;;;;;;;;;;5031228;28;20026;-64
2022/09/07 10:35:20;;;;;;;4.47;2.72;;;;;;;;;;5031371;28;20025;-63
2022/09/07 10:38:11;;;;;;;7.63;2.65;;;;;;;;;;5030326;28;20116;-65
2022/09/07 10:40:43;;;;;;;9.95;2.42;;;;;;;;;;5031407;28;20030;-62
2022/09/07 10:43:39;;;;;;;5.15;2.70;;;;;;;;;;5032034;28;20026;-62
2022/09/07 10:46:32;;;;;;;6.03;2.50;;;;;;;;;;5029601;28;20025;-64
2022/09/07 10:49:16;;;;;;;9.75;2.67;;;;;;;;;;5031103;28;20469;-64
2022/09/07 10:52:15;;;;;;;7.93;2.30;;;;;;;;;;5030325;28;20033;-63
2022/09/07 10:54:58;;;;;;;6.10;2.50;;;;;;;;;;5030233;28;20036;-64
2022/09/07 10:57:53;;;;;;;7.40;2.28;;;;;;;;;;5029501;28;20414;-63
2022/09/07 11:00:21;;;;;;;10.15;2.20;;;;;;;;;;5030318;28;20398;-62
2022/09/07 11:03:09;;;;;;;10.13;2.65;;;;;;;;;;5029757;28;20049;-61
2022/09/07 11:05:48;;;;;;;8.05;2.40;;;;;;;;;;5024796;28;20061;-61
2022/09/07 11:08:43;;;;;;;5.50;2.35;;;;;;;;;;5030202;28;20052;-62
2022/09/07 11:11:31;;;;;;;17.10;2.75;;;;;;;;;;5030509;28;20724;-61
2022/09/07 11:14:07;;;;;;;7.70;2.85;;;;;;;;;;5030441;28;20463;-62
2022/09/07 11:16:37;;;;;;;6.68;2.60;;;;;;;;;;5029826;28;20040;-61
2022/09/07 11:19:34;;;;;;;9.18;2.45;;;;;;;;;;5029317;28;20478;-63
2022/09/07 11:22:26;;;;;;;6.18;2.20;;;;;;;;;;5030293;28;20037;-63
2022/09/07 11:25:14;;;;;;;4.88;2.45;;;;;;;;;;5027424;28;20041;-62
2022/09/07 11:27:51;;;;;;;6.32;2.83;;;;;;;;;;5028837;28;20414;-62
2022/09/07 11:30:36;;;;;;;3.88;2.10;;;;;;;;;;5030752;28;20041;-63
2022/09/07 11:33:12;;;;;;;5.38;2.20;;;;;;;;;;5029751;28;20033;-62
2022/09/07 11:35:53;;;;;;;7.88;3.00;;;;;;;;;;5030429;28;20031;-62
2022/09/07 11:38:43;;;;;;;5.65;2.50;;;;;;;;;;5029534;28;20033;-62
2022/09/07 11:41:32;;;;;;;7.40;2.33;;;;;;;;;;5028120;28;20510;-62
2022/09/07 11:44:19;;;;;;;5.72;2.20;;;;;;;;;;5029847;28;20504;-63
2022/09/07 11:46:51;;;;;;;4.47;2.20;;;;;;;;;;5027626;28;20053;-62
2022/09/07 11:49:23;;;;;;;7.93;2.10;;;;;;;;;;5029493;28;20022;-62
2022/09/07 11:52:02;;;;;;;3.47;2.22;;;;;;;;;;5030654;28;20034;-62
2022/09/07 11:54:44;;;;;;;6.60;2.40;;;;;;;;;;5030066;28;20505;-62
2022/09/07 11:57:48;;;;;;;5.20;2.40;;;;;;;;;;5027815;28;20033;-62
2022/09/07 12:00:20;;;;;;;7.55;2.30;;;;;;;;;;5028497;28;20045;-62
2022/09/07 12:02:48;;;;;;;6.78;2.10;;;;;;;;;;5031681;28;20164;-62
2022/09/07 12:05:32;;;;;;;5.57;2.15;;;;;;;;;;5033380;28;20033;-62
2022/09/07 12:08:32;;;;;;;4.97;2.25;;;;;;;;;;5033053;28;20026;-63
2022/09/07 12:11:04;;;;;;;5.07;1.77;;;;;;;;;;5033277;28;20425;-64
2022/09/07 12:13:51;;;;;;;4.93;2.45;;;;;;;;;;5023610;28;20044;-63
2022/09/07 12:16:35;;;;;;;3.78;1.67;;;;;;;;;;5029267;28;21481;-63
2022/09/07 12:19:25;;;;;;;5.47;2.10;;;;;;;;;;5029167;28;20040;-63
2022/09/07 12:21:51;;;;;;;;;;;;;;;;;;5029486;28;20029;-63
2022/09/07 12:24:35;;;;;;;7.80;2.20;;;;;;;;;;5029350;28;19921;-63
2022/09/07 12:27:07;;;;;;;8.68;2.00;;;;;;;;;;5028856;28;20295;-63
2022/09/07 12:29:33;;;;;;;7.35;2.17;;;;;;;;;;5028958;28;20032;-64
2022/09/07 12:32:02;;;;;;;5.20;2.45;;;;;;;;;;5029593;28;20104;-62
2022/09/07 12:34:30;;;;;;;7.70;2.25;;;;;;;;;;5029702;28;20079;-62
2022/09/07 12:36:57;;;;;;;8.30;3.20;;;;;;;;;;5028894;28;20071;-62
2022/09/07 12:39:36;;;;;;;6.35;2.53;;;;;;;;;;5030003;28;20036;-63
2022/09/07 12:42:04;;;;;;;8.07;2.60;;;;;;;;;;5028746;28;20034;-64
2022/09/07 12:44:31;;;;;;;5.60;2.80;;;;;;;;;;5029071;28;20025;-62
2022/09/07 12:46:58;;;;;;;8.70;2.15;;;;;;;;;;5028148;28;20113;-63
2022/09/07 12:49:42;;;;;;;3.60;2.13;;;;;;;;;;5028972;28;20482;-62
2022/09/07 12:52:34;;;;;;;7.50;2.53;;;;;;;;;;5028862;28;20029;-62
2022/09/07 12:55:08;;;;;;;6.45;2.58;;;;;;;;;;5011362;28;20128;-62
2022/09/07 12:57:56;;;;;;;4.82;2.15;;;;;;;;;;5016665;28;20438;-65
2022/09/07 13:00:45;;;;;;;7.30;2.30;;;;;;;;;;5017543;28;20495;-63
2022/09/07 13:03:46;;;;;;;6.18;2.22;;;;;;;;;;4958646;28;20442;-64
2022/09/07 13:06:15;;;;;;;6.03;2.35;;;;;;;;;;4958049;28;20078;-63
2022/09/07 13:09:18;;;;;;;10.85;2.60;;;;;;;;;;4957599;28;20114;-63
2022/09/07 13:11:44;;;;;;;3.50;1.80;;;;;;;;;;4949804;28;20035;-62
2022/09/07 13:14:12;;;;;;;9.13;2.47;;;;;;;;;;4956031;28;20031;-62
2022/09/07 13:16:39;;;;;;;5.68;2.10;;;;;;;;;;4955339;28;20167;-62
2022/09/07 13:19:07;;;;;;;6.88;2.47;;;;;;;;;;4952414;28;20031;-62
2022/09/07 13:21:39;;;;;;;4.47;2.42;;;;;;;;;;4951568;28;20050;-63
2022/09/07 13:24:17;;;;;;;7.13;2.25;;;;;;;;;;4953849;28;20405;-62
2022/09/07 13:27:13;;;;;;;6.10;2.30;;;;;;;;;;4956974;28;20129;-66
2022/09/07 13:29:48;;;;;;;5.55;2.30;;;;;;;;;;4960277;28;20066;-68
2022/09/07 13:32:22;;;;;;;6.72;1.80;;;;;;;;;;4963112;28;20073;-62
2022/09/07 13:34:50;;;;;;;9.65;2.80;;;;;;;;;;4975878;28;20201;-62
2022/09/07 13:37:20;;;;;;;4.43;2.40;;;;;;;;;;4975620;28;20062;-62
2022/09/07 13:39:48;;;;;;;7.53;2.60;;;;;;;;;;4986626;28;20583;-62
2022/09/07 13:42:32;;;;;;;7.93;2.55;;;;;;;;;;5027321;28;20495;-63
2022/09/07 13:45:00;;;;;;;4.90;2.03;;;;;;;;;;5028841;28;20541;-64
2022/09/07 13:47:46;;;;;;;6.95;2.58;;;;;;;;;;5029031;28;20509;-62
2022/09/07 13:50:26;;;;;;;6.35;2.60;;;;;;;;;;5028389;28;20044;-62
2022/09/07 13:53:11;;;;;;;6.80;2.28;;;;;;;;;;5027905;28;20037;-63
2022/09/07 13:55:51;;;;;;;5.70;2.40;;;;;;;;;;5027666;28;20029;-62
2022/09/07 13:58:23;;;;;;;6.65;2.60;;;;;;;;;;5027539;28;20084;-61
2022/09/07 14:00:54;;;;;;;9.32;2.88;;;;;;;;;;5027327;28;20040;-62
2022/09/07 14:03:22;;;;;;;6.65;2.40;;;;;;;;;;5028200;28;20461;-62
2022/09/07 14:05:47;;;;;;;6.07;2.67;;;;;;;;;;5026802;28;20060;-64
2022/09/07 14:08:27;;;;;;;5.55;2.28;;;;;;;;;;5028001;28;20029;-63
2022/09/07 14:10:52;;;;;;;4.97;2.50;;;;;;;;;;5028556;28;20032;-62
2022/09/07 14:13:18;;;;;;;4.15;2.40;;;;;;;;;;5028096;28;20063;-62
2022/09/07 14:15:47;;;;;;;6.20;2.78;;;;;;;;;;5027206;28;20055;-62
2022/09/07 14:18:29;;;;;;;5.63;2.55;;;;;;;;;;5028233;28;20033;-62
2022/09/07 14:20:56;;;;;;;6.32;2.80;;;;;;;;;;5029978;28;20024;-63
2022/09/07 14:23:30;;;;;;;4.82;2.70;;;;;;;;;;5031707;28;20057;-62
2022/09/07 14:26:12;;;;;;;9.88;2.53;;;;;;;;;;5030670;28;20461;-63
2022/09/07 14:28:38;;;;;;;9.60;2.80;;;;;;;;;;5030690;28;20044;-63
2022/09/07 14:31:08;;;;;;;5.60;2.40;;;;;;;;;;5031278;28;20458;-62
2022/09/07 14:33:33;;;;;;;5.33;2.80;;;;;;;;;;5030600;28;20034;-62
2022/09/07 14:35:59;;;;;;;8.38;2.97;;;;;;;;;;5030967;28;20270;-63
2022/09/07 14:38:31;;;;;;;12.85;2.72;;;;;;;;;;5031832;28;20029;-63
2022/09/07 14:41:03;;;;;;;7.90;2.67;;;;;;;;;;5029614;28;20017;-63
2022/09/07 14:43:33;;;;;;;8.48;2.40;;;;;;;;;;5030082;28;20037;-63
2022/09/07 14:46:10;;;;;;;4.65;2.40;;;;;;;;;;5030835;28;20153;-62
2022/09/07 14:48:38;;;;;;;4.47;2.30;;;;;;;;;;5031202;28;20069;-64
2022/09/07 14:51:04;;;;;;;4.80;2.50;;;;;;;;;;5030535;28;20021;-65
2022/09/07 14:53:29;;;;;;;6.38;2.75;;;;;;;;;;5030062;28;20032;-62
2022/09/07 14:56:18;;;;;;;6.30;2.50;;;;;;;;;;5031603;28;20021;-63
2022/09/07 14:58:43;;;;;;;7.72;2.75;;;;;;;;;;5031356;28;20017;-64
2022/09/07 15:01:12;;;;;;;7.40;2.75;;;;;;;;;;5031021;28;20541;-62
2022/09/07 15:03:37;;;;;;;7.20;2.75;;;;;;;;;;5031246;28;20502;-63
2022/09/07 15:06:03;;;;;;;5.55;2.67;;;;;;;;;;5030787;28;20040;-62
2022/09/07 15:08:46;;;;;;;14.38;2.90;;;;;;;;;;5030870;28;20030;-62
2022/09/07 15:11:23;;;;;;;7.85;2.67;;;;;;;;;;5031164;28;20802;-63
2022/09/07 15:13:57;;;;;;;10.32;2.63;;;;;;;;;;5030217;28;20125;-63
2022/09/07 15:16:27;;;;;;;7.15;2.60;;;;;;;;;;5029875;28;20067;-63
2022/09/07 15:18:54;;;;;;;11.32;2.42;;;;;;;;;;5030562;28;20030;-65